Terminal Aerodrome Forecast
Issued by NWS Memphis, TN

Home | Current Version | Previous Version | Text Only | Print | Product List | Glossary On
Versions: 1 2 3 4 5 6 7 8 9 10 11 12 13 14 15 16 17 18 19
784
FTUS44 KMEG 232337
TAFMKL
TAF
KMKL 232337Z 2400/2424 36005KT P6SM BKN050
     FM241000 35004KT P6SM BKN015
     FM241800 35007KT P6SM BKN025
     FM242100 35005KT P6SM SCT030=

USA.gov is the U.S. government's official web portal to all federal, state and local government web resources and services.